Gerard, New Jersey
Current Conditions -  °F | °C
As of 9:53 PM on Friday 31 Oct 2014 (Local Time) from KFWN Reporting Station
Overcast Overcast  
Wind Chill: 50°   Ceiling: 7500
Heat Index: 50°   Visibility: 10mi
Dew Point: 36°   Wind: 8mph
Humidity: 59%   Direction: 40°NE
Pressure: 29.89"   Gusts: NA
Location:  41.1122°N, 74.4998°W
Report Text: KFWN 010153Z AUTO 04007KT 10SM FEW055 OVC075 10/02 A2989 RMK AO2 SLP124 T01000022
Loading
Personal Weather Stations






























Interactive Weather Map
Tropical Storm Tracking
New forecast layout! Learn more

10-Day Weather Forecast

Advertisements
Track Severe Weather on mobile